In Ko Pah (444) Station Data

Red Flag Warning: Yes
Fire Weather Zone: 262
SDGE Region: Mountain Empire
Lat/Lon: 32.636/-116.118

Observations

Time Wind Speed/Gust Temp(F) RH Fuel Moist Fuel Temp(F) Dewpt(F) Tmax(F) Tmin(F) Accum Precip 10-min Precip SL Press(mb)
6/27 5:00pm 225 19 G 29 92° 7% - - 18° 95.5° 73.2° - - 1006.0
6/27 4:50pm 230 20 G 34 92° 7% - - 18° 95.5° 73.2° - - 1005.0
6/27 4:40pm 229 19 G 28 92° 7% - - 20° 95.5° 73.2° - - 1005.0
6/27 4:30pm 233 19 G 28 93° 7% - - 19° 95.5° 73.2° - - 1006.0
6/27 4:20pm 235 19 G 30 93° 7% - - 19° 95.5° 73.2° - - 1006.0
6/27 4:10pm 235 19 G 28 93° 7% - - 19° 95.5° 73.2° - - 1006.0
6/27 4:00pm 232 18 G 29 94° 6% - - 19° 95.5° 73.2° - - 1006.0
6/27 3:50pm 232 19 G 30 94° 7% - - 19° 95.5° 73.2° - - 1006.0
6/27 3:40pm 231 19 G 31 94° 6% - - 17° 95.5° 73.2° - - 1006.0
6/27 3:30pm 237 18 G 27 94° 7% - - 19° 95.5° 73.2° - - 1006.0
6/27 3:20pm 231 19 G 27 94° 7% - - 19° 95.5° 73.2° - - 1006.0
6/27 3:10pm 233 19 G 30 94° 6% - - 19° 95.5° 73.2° - - 1006.0
6/27 3:00pm 231 19 G 32 94° 6% - - 18° 95.5° 73.2° - - 1006.0
6/27 2:50pm 228 18 G 32 95° 6% - - 18° 95.5° 73.2° - - 1006.0
6/27 2:40pm 226 19 G 28 95° 6% - - 17° 95.5° 73.2° - - 1006.0
6/27 2:30pm 230 19 G 31 94° 6% - - 18° 95.5° 73.2° - - 1006.0
6/27 2:20pm 227 18 G 29 95° 6% - - 18° 95.5° 73.2° - - 1006.0
6/27 2:10pm 228 18 G 30 95° 6% - - 18° 95.5° 73.2° - - 1006.0
6/27 2:00pm 232 17 G 26 94° 6% - - 17° 95.5° 73.2° - - 1007.0
6/27 1:50pm 233 17 G 26 95° 6% - - 17° 95.5° 73.2° - - 1006.0
6/27 1:40pm 233 18 G 26 94° 6% - - 18° 95.5° 73.2° - - 1007.0
6/27 1:30pm 236 16 G 26 95° 6% - - 18° 95.5° 73.2° - - 1007.0
6/27 1:20pm 234 18 G 27 95° 6% - - 16° 95.5° 73.2° - - 1007.0
6/27 1:10pm 239 16 G 26 94° 5% - - 14° 95.5° 73.2° - - 1007.0
6/27 1:00pm 247 17 G 29 94° 5% - - 12° 94.7° 73.2° - - 1007.0
6/27 12:50pm 242 17 G 29 94° 5% - - 13° 94.5° 73.2° - - 1007.0
6/27 12:40pm 235 17 G 27 94° 5% - - 12° 94.5° 73.2° - - 1007.0
6/27 12:30pm 238 19 G 29 93° 5% - - 13° 94.5° 73.2° - - 1007.0
6/27 12:20pm 234 17 G 28 94° 5% - - 13° 94.5° 73.2° - - 1007.0
6/27 12:10pm 235 18 G 28 93° 5% - - 14° 93.9° 73.2° - - 1008.0
6/27 12:00pm 240 16 G 26 93° 6% - - 15° 93.7° 73.2° - - 1008.0
6/27 11:50am 235 17 G 27 93° 6% - - 15° 93.6° 73.2° - - 1008.0
6/27 11:40am 241 14 G 22 93° 6% - - 16° 93.3° 73.2° - - 1008.0
6/27 11:30am 229 14 G 22 92° 6% - - 17° 93.2° 73.2° - - 1008.0
6/27 11:20am 234 17 G 26 92° 6% - - 14° 92.2° 73.2° - - 1008.0
6/27 11:10am 231 17 G 26 92° 5% - - 13° 92.1° 73.2° - - 1008.0
6/27 11:00am 227 16 G 26 91° 5% - - 13° 92° 73.2° - - 1008.0
6/27 10:50am 228 17 G 26 91° 6% - - 15° 92° 73.2° - - 1008.0
6/27 10:40am 230 15 G 22 91° 6% - - 16° 91.4° 73.2° - - 1008.0
6/27 10:30am 228 15 G 24 91° 6% - - 16° 91.4° 73.2° - - 1008.0
6/27 10:20am 224 15 G 24 90° 7% - - 17° 90.8° 73.2° - - 1008.0
6/27 10:10am 225 16 G 23 89° 7% - - 16° 89.9° 73.2° - - 1009.0
6/27 10:00am 219 16 G 25 89° 7% - - 16° 89.6° 73.2° - - 1009.0
6/27 9:50am 216 14 G 22 89° 7% - - 17° 89.6° 73.2° - - 1009.0
6/27 9:40am 219 14 G 24 88° 7% - - 18° 89.2° 73.2° - - 1009.0
6/27 9:30am 215 13 G 22 88° 8% - - 19° 88.4° 73.2° - - 1009.0
6/27 9:20am 219 12 G 19 88° 8% - - 19° 88.2° 73.2° - - 1009.0
6/27 9:10am 215 12 G 18 87° 8% - - 18° 87.4° 73.2° - - 1009.0
6/27 9:00am 219 13 G 21 86° 8% - - 18° 86.6° 73.2° - - 1009.0
6/27 8:50am 216 13 G 20 86° 8% - - 18° 86.2° 73.2° - - 1010.0
6/27 8:40am 212 13 G 21 85° 8% - - 18° 85.6° 73.2° - - 1010.0
6/27 8:30am 216 13 G 18 85° 8% - - 18° 85.1° 73.2° - - 1010.0
6/27 8:20am 214 13 G 21 84° 9% - - 18° 84.4° 73.2° - - 1010.0
6/27 8:10am 213 12 G 19 84° 9% - - 19° 84.2° 73.2° - - 1010.0
6/27 8:00am 218 13 G 19 83° 9% - - 18° 83.4° 73.2° - - 1010.0
6/27 7:50am 214 12 G 19 83° 9% - - 18° 82.7° 73.2° - - 1010.0
6/27 7:40am 212 12 G 18 82° 9% - - 18° 82.4° 73.2° - - 1010.0
6/27 7:30am 209 12 G 19 82° 9% - - 18° 81.9° 73.2° - - 1010.0
6/27 7:20am 211 12 G 19 81° 9% - - 18° 81.4° 73.2° - - 1010.0
6/27 7:10am 211 11 G 18 80° 10% - - 18° 80.7° 73.2° - - 1010.0
6/27 7:00am 207 10 G 17 80° 10% - - 18° 80.2° 73.2° - - 1010.0
6/27 6:50am 203 10 G 16 79° 10% - - 17° 79.7° 73.2° - - 1010.0
6/27 6:40am 209 10 G 15 78° 10% - - 17° 78.8° 73.2° - - 1011.0
6/27 6:30am 212 9 G 15 77° 11% - - 18° 77.9° 73.2° - - 1011.0
6/27 6:20am 211 10 G 16 77° 11% - - 18° 77.9° 73.2° - - 1011.0
6/27 6:10am 214 10 G 16 76° 11% - - 18° 77.9° 73.2° - - 1011.0
6/27 6:00am 214 10 G 15 76° 11% - - 18° 77.9° 73.2° - - 1011.0
6/27 5:50am 209 12 G 18 76° 11% - - 18° 77.9° 73.2° - - 1011.0
6/27 5:40am 208 12 G 20 76° 11% - - 18° 77.9° 73.2° - - 1011.0
6/27 5:30am 211 11 G 18 76° 11% - - 18° 77.9° 73.2° - - 1011.0
6/27 5:20am 211 11 G 16 76° 11% - - 18° 77.9° 73.2° - - 1011.0
6/27 5:10am 212 11 G 17 75° 11% - - 18° 77.9° 73.2° - - 1011.0
6/27 5:00am 217 11 G 15 75° 11% - - 18° 77.9° 73.2° - - 1011.0
6/27 4:50am 215 11 G 17 76° 11% - - 18° 77.9° 73.2° - - 1011.0
6/27 4:40am 218 11 G 18 76° 11% - - 18° 77.9° 73.2° - - 1011.0
6/27 4:30am 217 11 G 17 76° 11% - - 17° 77.9° 73.2° - - 1011.0
6/27 4:20am 215 12 G 19 77° 10% - - 17° 77.9° 73.2° - - 1010.0
6/27 4:10am 215 12 G 17 77° 10% - - 17° 77.9° 73.2° - - 1010.0
6/27 4:00am 212 11 G 17 77° 10% - - 17° 77.9° 73.2° - - 1010.0
6/27 3:50am 208 12 G 18 77° 10% - - 16° 77.9° 73.2° - - 1010.0
6/27 3:40am 212 11 G 20 77° 10% - - 15° 77.9° 73.2° - - 1010.0
6/27 3:30am 210 10 G 18 77° 9% - - 15° 77.9° 73.2° - - 1010.0
6/27 3:20am 212 10 G 15 77° 9% - - 14° 77.9° 73.2° - - 1011.0
6/27 3:10am 210 10 G 16 77° 9% - - 14° 77.9° 73.2° - - 1011.0
6/27 3:00am 214 10 G 15 76° 9% - - 14° 77.9° 73.2° - - 1011.0
6/27 2:50am 218 10 G 14 77° 9% - - 14° 77.9° 73.2° - - 1011.0
6/27 2:40am 213 10 G 17 77° 9% - - 14° 77.9° 73.2° - - 1010.0
6/27 2:30am 206 12 G 21 78° 9% - - 14° 77.9° 73.2° - - 1010.0
6/27 2:20am 211 11 G 19 77° 9% - - 14° 77.8° 73.2° - - 1011.0
6/27 2:10am 218 11 G 17 77° 9% - - 14° 77.4° 73.2° - - 1011.0
6/27 2:00am 218 11 G 16 76° 10% - - 15° 76.5° 73.2° - - 1011.0
6/27 1:50am 214 9 G 15 76° 10% - - 15° 76.5° 73.2° - - 1011.0
6/27 1:40am 212 9 G 13 76° 10% - - 16° 76.3° 73.2° - - 1011.0
6/27 1:30am 211 9 G 13 76° 10% - - 16° 76.2° 73.2° - - 1011.0
6/27 1:20am 232 8 G 11 74° 12% - - 18° 76.2° 73.2° - - 1012.0
6/27 1:10am 225 8 G 11 74° 12% - - 18° 76.2° 73.3° - - 1012.0
6/27 1:00am 213 7 G 10 74° 12% - - 18° 76.2° 73.3° - - 1012.0
6/27 12:50am 210 8 G 10 74° 12% - - 19° 76.2° 73.3° - - 1012.0
6/27 12:40am 214 7 G 10 74° 12% - - 19° 76.2° 73.3° - - 1012.0
6/27 12:30am 222 8 G 11 74° 12% - - 19° 76.2° 74.1° - - 1012.0
6/27 12:20am 222 8 G 10 75° 12% - - 19° 76.2° 74.2° - - 1012.0
6/27 12:10am 211 8 G 10 76° 12% - - 19° 76.2° 75.1° - - 1012.0
6/27 12:00am 210 8 G 10 76° 11% - - 19° 100.9° 74.5° - - 1012.0
6/26 11:50pm 206 7 G 10 77° 11% - - 19° 100.9° 74.5° - - 1012.0
6/26 11:40pm 212 7 G 11 77° 11% - - 19° 100.9° 74.5° - - 1012.0
6/26 11:30pm 212 8 G 12 78° 11% - - 19° 100.9° 74.5° - - 1012.0
6/26 11:20pm 212 7 G 11 79° 11% - - 19° 100.9° 74.5° - - 1012.0
6/26 11:10pm 207 8 G 12 79° 11% - - 20° 100.9° 74.5° - - 1012.0
6/26 11:00pm 202 8 G 14 80° 11% - - 20° 100.9° 74.5° - - 1012.0
6/26 10:50pm 205 7 G 12 80° 11% - - 20° 100.9° 74.5° - - 1012.0
6/26 10:40pm 198 7 G 14 79° 11% - - 21° 100.9° 74.5° - - 1012.0
6/26 10:30pm 203 6 G 10 79° 12% - - 22° 100.9° 74.5° - - 1012.0
6/26 10:20pm 209 5 G 8 78° 12% - - 22° 100.9° 74.5° - - 1012.0
6/26 10:10pm 229 6 G 9 79° 12% - - 21° 100.9° 74.5° - - 1012.0
6/26 10:00pm 227 6 G 8 79° 12% - - 21° 100.9° 74.5° - - 1012.0
6/26 9:50pm 221 6 G 9 80° 11% - - 21° 100.9° 74.5° - - 1012.0
6/26 9:40pm 212 7 G 11 80° 11% - - 21° 100.9° 74.5° - - 1012.0
6/26 9:30pm 218 8 G 11 81° 11% - - 22° 100.9° 74.5° - - 1012.0
6/26 9:20pm 221 8 G 12 81° 11% - - 22° 100.9° 74.5° - - 1011.0
6/26 9:10pm 228 8 G 11 81° 11% - - 22° 100.9° 74.5° - - 1011.0
6/26 9:00pm 236 7 G 10 83° 11% - - 22° 100.9° 74.5° - - 1011.0
6/26 8:50pm 229 9 G 14 84° 10% - - 22° 100.9° 74.5° - - 1011.0
6/26 8:40pm 226 10 G 16 84° 10% - - 22° 100.9° 74.5° - - 1011.0
6/26 8:30pm 222 10 G 16 85° 9% - - 20° 100.9° 74.5° - - 1011.0
6/26 8:20pm 226 11 G 16 86° 8% - - 19° 100.9° 74.5° - - 1010.0
6/26 8:10pm 225 10 G 16 86° 9% - - 20° 100.9° 74.5° - - 1010.0
6/26 8:00pm 227 10 G 17 88° 9% - - 21° 100.9° 74.5° - - 1010.0
6/26 7:50pm 239 10 G 16 89° 8% - - 21° 100.9° 74.5° - - 1010.0
6/26 7:40pm 247 10 G 17 90° 8% - - 20° 100.9° 74.5° - - 1009.0
6/26 7:30pm 247 12 G 20 90° 8% - - 20° 100.9° 74.5° - - 1009.0
6/26 7:20pm 247 12 G 20 91° 8% - - 20° 100.9° 74.5° - - 1009.0
6/26 7:10pm 245 13 G 22 92° 7% - - 20° 100.9° 74.5° - - 1009.0
6/26 7:00pm 245 11 G 20 92° 8% - - 21° 100.9° 74.5° - - 1008.0
6/26 6:50pm 242 11 G 21 93° 8% - - 22° 100.9° 74.5° - - 1008.0
6/26 6:40pm 245 11 G 17 93° 8% - - 22° 100.9° 74.5° - - 1008.0
6/26 6:30pm 240 13 G 22 94° 8% - - 22° 100.9° 74.5° - - 1008.0
6/26 6:20pm 249 11 G 20 94° 7% - - 22° 100.9° 74.5° - - 1008.0
6/26 6:10pm 245 12 G 20 95° 7% - - 23° 100.9° 74.5° - - 1008.0
6/26 6:00pm 256 12 G 18 95° 7% - - 23° 100.9° 74.5° - - 1008.0
6/26 5:50pm 254 12 G 23 96° 7% - - 23° 100.9° 74.5° - - 1007.0
6/26 5:40pm 248 12 G 21 97° 7% - - 24° 100.9° 74.5° - - 1007.0
6/26 5:30pm 264 12 G 19 96° 8% - - 24° 100.9° 74.5° - - 1008.0
6/26 5:20pm 251 13 G 24 97° 8% - - 25° 100.9° 74.5° - - 1008.0
6/26 5:10pm 249 13 G 23 97° 8% - - 25° 100.9° 74.5° - - 1008.0
6/26 5:00pm 245 12 G 21 98° 8% - - 25° 100.9° 74.5° - - 1008.0
6/26 4:50pm 250 11 G 17 98° 8% - - 26° 100.9° 74.5° - - 1008.0
6/26 4:40pm 242 13 G 22 98° 8% - - 26° 100.9° 74.5° - - 1008.0
6/26 4:30pm 244 11 G 20 98° 8% - - 26° 100.9° 74.5° - - 1008.0
6/26 4:20pm 246 9 G 20 98° 8% - - 26° 100.9° 74.5° - - 1008.0
6/26 4:10pm 256 12 G 22 98° 8% - - 26° 100.9° 74.5° - - 1008.0
6/26 4:00pm 247 11 G 21 98° 8% - - 27° 100.9° 74.5° - - 1008.0
6/26 3:50pm 255 10 G 18 98° 8% - - 27° 100.9° 74.5° - - 1008.0
6/26 3:40pm 247 10 G 22 98° 8% - - 27° 100.9° 74.5° - - 1008.0
6/26 3:30pm 243 11 G 20 99° 8% - - 27° 100.9° 74.5° - - 1008.0
6/26 3:20pm 265 9 G 15 99° 8% - - 27° 100.9° 74.5° - - 1008.0
6/26 3:10pm 250 9 G 17 99° 7% - - 26° 100.9° 74.5° - - 1008.0
6/26 3:00pm 257 9 G 18 99° 7% - - 25° 100.9° 74.5° - - 1008.0
6/26 2:50pm 263 7 G 16 100° 7% - - 25° 100.9° 74.5° - - 1008.0
6/26 2:40pm 254 7 G 17 99° 7% - - 24° 100.6° 74.5° - - 1008.0
6/26 2:30pm 250 11 G 18 99° 7% - - 24° 100.6° 74.5° - - 1008.0
6/26 2:20pm 254 11 G 19 99° 7% - - 24° 100.6° 74.5° - - 1008.0
6/26 2:10pm 252 9 G 14 99° 7% - - 25° 100.6° 74.5° - - 1008.0
6/26 2:00pm 258 9 G 18 99° 7% - - 25° 100.6° 74.5° - - 1009.0
6/26 1:50pm 246 11 G 21 99° 8% - - 26° 100.6° 74.5° - - 1008.0
6/26 1:40pm 247 11 G 22 99° 8% - - 26° 100.6° 74.5° - - 1008.0
6/26 1:30pm 259 9 G 16 100° 8% - - 27° 100.6° 74.5° - - 1008.0
6/26 1:20pm 254 9 G 19 100° 8% - - 27° 100.6° 74.5° - - 1009.0
6/26 1:10pm 35 4 G 11 99° 9% - - 29° 99.6° 74.5° - - 1009.0
6/26 1:00pm 40 5 G 14 98° 9% - - 29° 98.5° 74.5° - - 1009.0
6/26 12:50pm 343 5 G 10 98° 9% - - 29° 98.4° 74.5° - - 1009.0
6/26 12:40pm 43 4 G 11 97° 9% - - 28° 97.8° 74.5° - - 1009.0
6/26 12:30pm 47 7 G 11 96° 9% - - 29° 97.3° 74.5° - - 1010.0
6/26 12:20pm 30 8 G 12 96° 9% - - 29° 97.3° 74.5° - - 1010.0
6/26 12:10pm 36 6 G 10 95° 9% - - 29° 97.3° 74.5° - - 1010.0
6/26 12:00pm 31 6 G 10 95° 11% - - 31° 97.3° 74.5° - - 1010.0
6/26 11:50am 27 8 G 12 94° 11% - - 32° 97.3° 74.5° - - 1010.0
6/26 11:40am 30 8 G 12 94° 12% - - 33° 97.3° 74.5° - - 1010.0
6/26 11:30am 38 8 G 13 94° 12% - - 33° 97.3° 74.5° - - 1010.0
6/26 11:20am 24 9 G 14 94° 11% - - 32° 97.3° 74.5° - - 1010.0
6/26 11:10am 40 9 G 14 95° 11% - - 33° 97.3° 74.5° - - 1010.0
6/26 11:00am 36 10 G 15 95° 12% - - 33° 97.3° 74.5° - - 1010.0
6/26 10:50am 29 8 G 14 96° 11% - - 32° 97.3° 74.5° - - 1010.0
6/26 10:40am 307 3 G 10 96° 9% - - 27° 97.3° 74.5° - - 1010.0
6/26 10:30am 242 5 G 9 96° 8% - - 26° 96.9° 74.5° - - 1010.0
6/26 10:20am 240 3 G 7 96° 8% - - 26° 96.5° 74.5° - - 1010.0
6/26 10:10am 173 4 G 8 96° 8% - - 25° 96.5° 74.5° - - 1010.0
6/26 10:00am 128 3 G 7 96° 8% - - 25° 96.5° 74.5° - - 1010.0
6/26 9:50am 232 2 G 5 93° 9% - - 26° 94.4° 74.5° - - 1010.0
6/26 9:40am 243 3 G 5 92° 9% - - 26° 93° 74.5° - - 1011.0
6/26 9:30am 237 3 G 5 93° 9% - - 25° 93° 74.5° - - 1011.0
6/26 9:20am 200 3 G 5 92° 9% - - 27° 92.9° 74.5° - - 1011.0
6/26 9:10am 231 3 G 6 91° 10% - - 27° 91.5° 74.5° - - 1011.0
6/26 9:00am 234 3 G 6 90° 11% - - 27° 90.2° 74.5° - - 1011.0
6/26 8:50am 230 3 G 5 88° 11% - - 27° 89.2° 74.5° - - 1012.0
6/26 8:40am 241 3 G 4 87° 11% - - 27° 87.3° 74.5° - - 1012.0
6/26 8:30am 239 3 G 5 86° 12% - - 27° 86.3° 74.5° - - 1012.0
6/26 8:20am 235 3 G 5 85° 12% - - 27° 85.5° 74.5° - - 1012.0
6/26 8:10am 232 3 G 5 84° 12% - - 27° 84.9° 74.5° - - 1012.0
6/26 8:00am 219 4 G 5 83° 13% - - 27° 83.9° 74.5° - - 1012.0
6/26 7:50am 228 3 G 5 83° 13% - - 27° 83.9° 74.5° - - 1012.0
6/26 7:40am 241 3 G 4 81° 14% - - 27° 83.9° 74.5° - - 1013.0
6/26 7:30am 237 3 G 5 80° 15% - - 28° 83.9° 74.5° - - 1013.0
6/26 7:20am 227 3 G 5 78° 16% - - 28° 83.9° 74.5° - - 1013.0
6/26 7:10am 217 4 G 6 78° 16% - - 28° 83.9° 74.5° - - 1013.0
6/26 7:00am 218 4 G 5 77° 16% - - 28° 83.9° 74.5° - - 1013.0
6/26 6:50am 215 3 G 5 77° 17% - - 28° 83.9° 74.5° - - 1013.0
6/26 6:40am 214 4 G 5 76° 17% - - 28° 83.9° 74.5° - - 1013.0
6/26 6:30am 230 3 G 5 76° 17% - - 27° 83.9° 74.5° - - 1014.0
6/26 6:20am 221 3 G 4 75° 16% - - 26° 83.9° 74.5° - - 1014.0
6/26 6:10am 236 3 G 4 75° 16% - - 26° 83.9° 74.5° - - 1013.0
6/26 6:00am 216 3 G 6 77° 15% - - 25° 83.9° 75.2° - - 1013.0